createdAt,value
2023-12-08T00:01:16.318Z,0.60
2023-12-08T00:03:44.696Z,0.70
2023-12-08T00:06:13.306Z,0.70
2023-12-08T00:08:42.599Z,0.70
2023-12-08T00:11:12.334Z,0.70
2023-12-08T00:13:40.533Z,0.70
2023-12-08T00:16:09.948Z,0.60
2023-12-08T00:18:39.649Z,0.50
2023-12-08T00:21:09.129Z,0.50
2023-12-08T00:23:37.439Z,0.40
2023-12-08T00:26:05.861Z,0.50
2023-12-08T00:28:33.963Z,0.50
2023-12-08T00:31:02.005Z,0.60
2023-12-08T00:33:30.365Z,0.70
2023-12-08T00:36:00.019Z,0.70
2023-12-08T00:38:28.111Z,0.70
2023-12-08T00:40:57.833Z,0.70
2023-12-08T00:43:26.121Z,0.70
2023-12-08T00:45:54.898Z,0.70
2023-12-08T00:48:23.175Z,0.60
2023-12-08T00:50:51.339Z,0.60
2023-12-08T00:53:20.824Z,0.50
2023-12-08T00:55:48.966Z,0.50
2023-12-08T00:58:18.161Z,0.40
2023-12-08T01:00:46.487Z,0.40
2023-12-08T01:03:15.583Z,0.40
2023-12-08T01:05:43.767Z,0.40
2023-12-08T01:08:11.855Z,0.40
2023-12-08T01:10:41.313Z,0.30
2023-12-08T01:13:09.464Z,0.30
2023-12-08T01:15:37.619Z,0.30
2023-12-08T01:18:06.096Z,0.30
2023-12-08T01:20:34.540Z,0.30
2023-12-08T01:23:02.645Z,0.40
2023-12-08T01:25:30.768Z,0.40
2023-12-08T01:28:00.463Z,0.40
2023-12-08T01:30:28.780Z,0.40
2023-12-08T01:32:56.966Z,0.40
2023-12-08T01:35:25.116Z,0.40
2023-12-08T01:37:53.218Z,0.30
2023-12-08T01:40:21.316Z,0.30
2023-12-08T01:42:49.765Z,0.30
2023-12-08T01:45:19.359Z,0.30
2023-12-08T01:47:50.018Z,0.30
2023-12-08T01:50:19.730Z,0.30
2023-12-08T01:52:49.952Z,0.20
2023-12-08T01:55:18.262Z,0.20
2023-12-08T01:57:46.514Z,0.30
2023-12-08T02:00:16.840Z,0.20
2023-12-08T02:02:46.398Z,0.20
2023-12-08T02:05:17.706Z,-0.10
2023-12-08T02:07:46.478Z,-0.10
2023-12-08T02:10:14.608Z,0.00
2023-12-08T02:12:42.723Z,0.00
2023-12-08T02:15:13.651Z,-0.10
2023-12-08T02:17:44.711Z,0.10
2023-12-08T02:20:15.068Z,0.20
2023-12-08T02:22:43.161Z,0.30
2023-12-08T02:25:12.572Z,0.10
2023-12-08T02:27:40.684Z,-0.20
2023-12-08T02:30:10.545Z,-0.20
2023-12-08T02:32:46.636Z,-0.10
2023-12-08T02:35:17.827Z,0.00
2023-12-08T02:37:49.584Z,0.00
2023-12-08T02:40:19.462Z,0.00
2023-12-08T02:42:48.606Z,0.00
2023-12-08T02:45:16.815Z,0.00
2023-12-08T02:47:45.161Z,0.00
2023-12-08T02:50:13.328Z,0.00
2023-12-08T02:52:41.468Z,-0.10
2023-12-08T02:55:09.826Z,-0.10
2023-12-08T02:57:39.355Z,0.00
2023-12-08T03:00:09.277Z,0.00
2023-12-08T03:02:37.471Z,-0.10
2023-12-08T03:05:06.057Z,-0.10
2023-12-08T03:07:34.114Z,-0.10
2023-12-08T03:10:02.174Z,-0.10
2023-12-08T03:12:30.312Z,0.00
2023-12-08T03:14:59.819Z,0.10
2023-12-08T03:17:28.319Z,0.10
2023-12-08T03:19:56.762Z,0.10
2023-12-08T03:22:24.940Z,0.00
2023-12-08T03:24:53.016Z,0.00
2023-12-08T03:27:21.107Z,0.00
2023-12-08T03:29:49.183Z,-0.10
2023-12-08T03:32:18.685Z,-0.20
2023-12-08T03:34:46.777Z,-0.10
2023-12-08T03:37:15.144Z,-0.10
2023-12-08T03:39:44.644Z,-0.10
2023-12-08T03:42:13.265Z,-0.10
2023-12-08T03:44:41.422Z,-0.10
2023-12-08T03:47:09.571Z,-0.40
2023-12-08T03:49:39.174Z,-0.30
2023-12-08T03:52:07.470Z,-0.20
2023-12-08T03:54:35.576Z,-0.20
2023-12-08T03:57:03.765Z,-0.10
2023-12-08T03:59:31.872Z,0.10
2023-12-08T04:02:00.195Z,0.10
2023-12-08T04:04:28.306Z,0.10
2023-12-08T04:06:58.913Z,0.00
2023-12-08T04:09:28.917Z,-0.10
2023-12-08T04:11:57.498Z,-0.10
2023-12-08T04:14:25.706Z,-0.10
2023-12-08T04:16:53.970Z,0.00
2023-12-08T04:19:22.857Z,0.10
2023-12-08T04:21:51.102Z,0.10
2023-12-08T04:24:20.588Z,0.10
2023-12-08T04:26:48.731Z,0.10
2023-12-08T04:29:16.797Z,0.10
2023-12-08T04:31:45.075Z,0.10
2023-12-08T04:34:13.349Z,0.10
2023-12-08T04:36:41.533Z,0.10
2023-12-08T04:39:09.997Z,0.10
2023-12-08T04:41:39.791Z,0.10
2023-12-08T04:44:07.970Z,0.10
2023-12-08T04:46:36.085Z,0.00
2023-12-08T04:49:04.366Z,0.10
2023-12-08T04:51:32.599Z,0.00
2023-12-08T04:54:00.764Z,0.00
2023-12-08T04:56:28.887Z,0.00
2023-12-08T04:58:58.301Z,0.00
2023-12-08T05:01:26.455Z,-0.10
2023-12-08T05:03:54.665Z,-0.10
2023-12-08T05:06:27.502Z,-0.10
2023-12-08T05:08:55.855Z,-0.10
2023-12-08T05:11:24.128Z,0.00
2023-12-08T05:13:52.234Z,-0.10
2023-12-08T05:16:21.637Z,0.00
2023-12-08T05:18:49.956Z,-0.10
2023-12-08T05:21:18.189Z,-0.10
2023-12-08T05:23:46.342Z,-0.10
2023-12-08T05:26:14.515Z,-0.10
2023-12-08T05:28:42.625Z,-0.10
2023-12-08T05:31:10.769Z,-0.10
2023-12-08T05:33:40.441Z,-0.10
2023-12-08T05:36:09.491Z,0.00
2023-12-08T05:38:37.809Z,0.00
2023-12-08T05:41:06.599Z,0.00
2023-12-08T05:43:34.825Z,0.00
2023-12-08T05:46:03.404Z,0.00
2023-12-08T05:48:31.737Z,0.00
2023-12-08T05:51:01.353Z,0.00
2023-12-08T05:53:29.731Z,0.00
2023-12-08T05:55:57.775Z,0.00
2023-12-08T05:58:26.219Z,0.00
2023-12-08T06:00:54.370Z,0.10
2023-12-08T06:03:22.665Z,0.00
2023-12-08T06:05:50.875Z,0.00
2023-12-08T06:08:20.443Z,-0.10
2023-12-08T06:10:48.524Z,-0.10
2023-12-08T06:13:17.198Z,-0.10
2023-12-08T06:15:45.268Z,-0.10
2023-12-08T06:18:13.554Z,-0.20
2023-12-08T06:20:41.876Z,-0.20
2023-12-08T06:23:09.940Z,-0.20
2023-12-08T06:25:39.518Z,-0.20
2023-12-08T06:28:07.680Z,-0.20
2023-12-08T06:30:35.873Z,-0.20
2023-12-08T06:33:04.197Z,-0.30
2023-12-08T06:35:32.384Z,-0.30
2023-12-08T06:38:00.459Z,-0.30
2023-12-08T06:40:28.559Z,-0.30
2023-12-08T06:42:58.080Z,-0.20
2023-12-08T06:45:26.130Z,-0.10
2023-12-08T06:47:55.707Z,-0.10
2023-12-08T06:50:24.585Z,-0.10
2023-12-08T06:52:52.835Z,0.00
2023-12-08T06:55:20.925Z,0.00
2023-12-08T06:57:49.004Z,-0.10
2023-12-08T07:00:19.299Z,-0.10
2023-12-08T07:02:48.112Z,-0.10
2023-12-08T07:05:20.605Z,0.00
2023-12-08T07:07:49.543Z,0.00
2023-12-08T07:10:17.697Z,0.00
2023-12-08T07:12:46.125Z,0.00
2023-12-08T07:15:14.621Z,0.00
2023-12-08T07:17:44.261Z,0.00
2023-12-08T07:20:13.812Z,0.00
2023-12-08T07:22:41.887Z,0.00
2023-12-08T07:25:11.346Z,0.00
2023-12-08T07:27:39.445Z,0.00
2023-12-08T07:30:10.021Z,0.00
2023-12-08T07:32:38.328Z,0.00
2023-12-08T07:35:09.328Z,-0.10
2023-12-08T07:37:41.346Z,0.00
2023-12-08T07:40:10.652Z,0.00
2023-12-08T07:42:38.760Z,0.00
2023-12-08T07:45:08.223Z,-0.10
2023-12-08T07:47:36.670Z,0.00
2023-12-08T07:50:05.465Z,0.00
2023-12-08T07:52:34.977Z,0.00
2023-12-08T07:55:03.133Z,0.00
2023-12-08T07:57:31.374Z,0.00
2023-12-08T07:59:59.577Z,0.00
2023-12-08T08:02:27.896Z,0.10
2023-12-08T08:04:56.236Z,0.10
2023-12-08T08:07:26.050Z,0.10
2023-12-08T08:09:56.289Z,0.10
2023-12-08T08:12:24.391Z,0.10
2023-12-08T08:14:52.474Z,0.10
2023-12-08T08:17:20.620Z,0.20
2023-12-08T08:19:48.743Z,0.30
2023-12-08T08:22:29.784Z,0.30
2023-12-08T08:25:02.764Z,0.40
2023-12-08T08:27:33.140Z,0.40
2023-12-08T08:30:01.705Z,0.40
2023-12-08T08:32:30.319Z,0.40
2023-12-08T08:34:59.830Z,0.50
2023-12-08T08:37:29.256Z,0.50
2023-12-08T08:39:57.729Z,0.50
2023-12-08T08:42:27.569Z,0.60
2023-12-08T08:44:55.774Z,0.60
2023-12-08T08:47:24.123Z,0.60
2023-12-08T08:49:52.502Z,0.50
2023-12-08T08:52:20.872Z,0.50
2023-12-08T08:54:49.137Z,0.50
2023-12-08T08:57:18.406Z,0.50
2023-12-08T08:59:47.882Z,0.50
2023-12-08T09:02:16.098Z,0.50
2023-12-08T09:04:44.255Z,0.50
2023-12-08T09:07:12.436Z,0.50
2023-12-08T09:09:43.717Z,0.50
2023-12-08T09:12:13.054Z,0.50
2023-12-08T09:14:41.193Z,0.50
2023-12-08T09:17:10.678Z,0.50
2023-12-08T09:19:39.257Z,0.50
2023-12-08T09:22:07.627Z,0.60
2023-12-08T09:24:36.196Z,0.60
2023-12-08T09:27:04.557Z,0.60
2023-12-08T09:29:32.686Z,0.70
2023-12-08T09:32:00.823Z,0.70
2023-12-08T09:34:30.954Z,0.80
2023-12-08T09:37:25.812Z,0.80
2023-12-08T09:39:48.630Z,0.80
2023-12-08T09:42:22.474Z,0.80
2023-12-08T09:44:51.343Z,0.80
2023-12-08T09:47:21.585Z,0.80
2023-12-08T09:49:51.953Z,0.80
2023-12-08T09:52:22.424Z,0.90
2023-12-08T09:54:50.604Z,0.80
2023-12-08T09:57:21.191Z,0.90
2023-12-08T09:59:50.083Z,0.90
2023-12-08T10:02:19.756Z,1.00
2023-12-08T10:04:48.201Z,1.00
2023-12-08T10:07:20.297Z,1.00
2023-12-08T10:09:48.482Z,1.00
2023-12-08T10:12:16.973Z,1.00
2023-12-08T10:14:53.327Z,1.10
2023-12-08T10:17:21.737Z,1.00
2023-12-08T10:19:50.605Z,1.00
2023-12-08T10:22:20.137Z,1.00
2023-12-08T10:24:48.464Z,1.00
2023-12-08T10:27:16.664Z,1.10
2023-12-08T10:29:45.141Z,1.20
2023-12-08T10:32:15.876Z,1.20
2023-12-08T10:34:45.087Z,1.20
2023-12-08T10:37:13.187Z,1.30
2023-12-08T10:39:42.688Z,1.30
2023-12-08T10:42:12.092Z,1.30
2023-12-08T10:44:40.309Z,1.20
2023-12-08T10:47:08.743Z,1.30
2023-12-08T10:49:40.084Z,1.30
2023-12-08T10:52:09.608Z,1.30
2023-12-08T10:54:37.701Z,1.40
2023-12-08T10:57:07.706Z,1.30
2023-12-08T10:59:38.802Z,1.30
2023-12-08T11:02:18.576Z,1.30
2023-12-08T11:04:49.154Z,1.40
2023-12-08T11:07:24.742Z,1.40
2023-12-08T11:09:55.272Z,1.40
2023-12-08T11:12:29.604Z,1.50
2023-12-08T11:15:04.721Z,1.50
2023-12-08T11:17:37.310Z,1.50
2023-12-08T11:20:06.905Z,1.40
2023-12-08T11:22:35.329Z,1.40
2023-12-08T11:25:10.976Z,1.40
2023-12-08T11:27:45.881Z,1.40
2023-12-08T11:30:22.559Z,1.40
2023-12-08T11:32:57.560Z,1.40
2023-12-08T11:35:25.792Z,1.30
2023-12-08T11:37:53.864Z,1.20
2023-12-08T11:40:22.220Z,1.20
2023-12-08T11:42:54.640Z,1.30
2023-12-08T11:45:23.728Z,1.30
2023-12-08T11:47:51.886Z,1.30
2023-12-08T11:50:20.344Z,1.40
2023-12-08T11:52:48.428Z,1.40
2023-12-08T11:55:28.092Z,1.40
2023-12-08T11:58:08.897Z,1.30
2023-12-08T12:00:38.547Z,1.40
2023-12-08T12:03:08.963Z,1.40
2023-12-08T12:05:39.936Z,1.40
2023-12-08T12:08:09.274Z,1.40
2023-12-08T12:10:39.320Z,1.40
2023-12-08T12:13:12.691Z,1.40
2023-12-08T12:15:43.120Z,1.40
2023-12-08T12:18:14.764Z,1.30
2023-12-08T12:20:43.309Z,1.30
2023-12-08T12:23:12.407Z,1.30
2023-12-08T12:25:42.469Z,1.30
2023-12-08T12:28:11.902Z,1.30
2023-12-08T12:30:40.123Z,1.30
2023-12-08T12:33:08.510Z,1.20
2023-12-08T12:35:39.501Z,1.20
2023-12-08T12:38:13.274Z,1.20
2023-12-08T12:40:41.627Z,1.10
2023-12-08T12:43:17.484Z,1.10
2023-12-08T12:45:45.672Z,1.10
2023-12-08T12:48:13.958Z,1.20
2023-12-08T12:50:49.354Z,1.10
2023-12-08T12:53:17.745Z,1.20
2023-12-08T12:55:46.720Z,1.20
2023-12-08T12:58:23.815Z,1.20
2023-12-08T13:00:53.000Z,1.20
2023-12-08T13:03:24.314Z,1.20
2023-12-08T13:05:54.768Z,1.20
2023-12-08T13:08:23.644Z,1.20
2023-12-08T13:10:54.514Z,1.10
2023-12-08T13:13:24.064Z,1.20
2023-12-08T13:15:52.662Z,1.20
2023-12-08T13:18:20.946Z,1.20
2023-12-08T13:20:49.144Z,1.10
2023-12-08T13:23:18.305Z,1.10
2023-12-08T13:25:46.438Z,1.10
2023-12-08T13:28:14.714Z,1.00
2023-12-08T13:30:44.324Z,1.00
2023-12-08T13:33:12.551Z,0.90
2023-12-08T13:35:40.714Z,0.90
2023-12-08T13:38:08.829Z,0.90
2023-12-08T13:40:36.890Z,0.90
2023-12-08T13:43:05.025Z,0.90
2023-12-08T13:45:33.629Z,0.90
2023-12-08T13:48:04.232Z,0.90
2023-12-08T13:50:35.942Z,1.00
2023-12-08T13:53:06.226Z,0.90
2023-12-08T13:55:34.318Z,1.00
2023-12-08T13:58:02.398Z,1.00
2023-12-08T14:00:30.588Z,1.00
2023-12-08T14:02:58.812Z,1.00
2023-12-08T14:05:28.250Z,1.00
2023-12-08T14:07:56.327Z,1.00
2023-12-08T14:10:24.448Z,1.00
2023-12-08T14:12:52.528Z,1.00
2023-12-08T14:15:20.891Z,0.90
2023-12-08T14:17:49.543Z,0.90
2023-12-08T14:20:17.681Z,0.90
2023-12-08T14:22:48.305Z,0.90
2023-12-08T14:25:16.987Z,1.00
2023-12-08T14:27:45.102Z,1.00
2023-12-08T14:30:13.815Z,1.00
2023-12-08T14:32:42.097Z,0.90
2023-12-08T14:35:18.990Z,0.90
2023-12-08T14:37:56.711Z,0.90
2023-12-08T14:40:25.128Z,0.90
2023-12-08T14:42:54.607Z,0.90
2023-12-08T14:45:22.934Z,0.90
2023-12-08T14:47:51.124Z,0.90
2023-12-08T14:50:20.317Z,0.90
2023-12-08T14:52:48.454Z,0.90
2023-12-08T14:55:18.747Z,1.00
2023-12-08T14:57:47.194Z,0.90
2023-12-08T15:00:16.633Z,0.90
2023-12-08T15:02:45.603Z,0.90
2023-12-08T15:05:14.082Z,0.80
2023-12-08T15:07:42.695Z,0.80
2023-12-08T15:10:11.214Z,0.90
2023-12-08T15:12:40.811Z,0.90
2023-12-08T15:15:09.658Z,0.90
2023-12-08T15:17:38.280Z,0.90
2023-12-08T15:20:09.812Z,0.90
2023-12-08T15:22:40.553Z,0.90
2023-12-08T15:25:09.536Z,0.90
2023-12-08T15:27:37.756Z,0.90
2023-12-08T15:30:08.713Z,0.90
2023-12-08T15:32:37.410Z,0.90
2023-12-08T15:35:07.779Z,0.90
2023-12-08T15:37:35.872Z,0.90
2023-12-08T15:40:03.989Z,0.90
2023-12-08T15:42:32.142Z,0.90
2023-12-08T15:45:01.158Z,0.90
2023-12-08T15:47:32.120Z,0.90
2023-12-08T15:50:03.127Z,0.90
2023-12-08T15:52:31.215Z,0.90
2023-12-08T15:54:59.300Z,0.90
2023-12-08T15:57:27.702Z,0.90
2023-12-08T15:59:55.966Z,0.90
2023-12-08T16:02:24.678Z,0.90
2023-12-08T16:04:54.281Z,0.90
2023-12-08T16:07:24.469Z,0.90
2023-12-08T16:09:52.824Z,0.90
2023-12-08T16:12:20.940Z,0.90
2023-12-08T16:14:49.162Z,0.90
2023-12-08T16:17:17.287Z,0.90
2023-12-08T16:19:45.773Z,0.80
2023-12-08T16:22:16.621Z,0.80
2023-12-08T16:24:47.768Z,0.90
2023-12-08T16:27:16.472Z,0.90
2023-12-08T16:29:46.331Z,0.90
2023-12-08T16:32:15.099Z,0.80
2023-12-08T16:34:43.618Z,0.80
2023-12-08T16:37:11.851Z,0.90
2023-12-08T16:39:41.321Z,0.80
2023-12-08T16:42:09.634Z,0.80
2023-12-08T16:44:37.787Z,0.70
2023-12-08T16:47:06.221Z,0.80
2023-12-08T16:49:34.661Z,0.80
2023-12-08T16:52:04.124Z,0.80
2023-12-08T16:54:32.310Z,0.80
2023-12-08T16:57:01.850Z,0.80
2023-12-08T16:59:30.771Z,0.80
2023-12-08T17:01:58.875Z,0.80
2023-12-08T17:04:27.766Z,0.80
2023-12-08T17:06:59.811Z,0.80
2023-12-08T17:09:28.529Z,0.80
2023-12-08T17:11:56.718Z,0.80
2023-12-08T17:14:26.157Z,0.80
2023-12-08T17:16:54.309Z,0.80
2023-12-08T17:19:22.987Z,0.80
2023-12-08T17:21:51.134Z,0.80
2023-12-08T17:24:20.100Z,0.80
2023-12-08T17:26:52.924Z,0.70
2023-12-08T17:29:21.051Z,0.70
2023-12-08T17:31:50.504Z,0.80
2023-12-08T17:34:22.589Z,0.70
2023-12-08T17:36:51.763Z,0.70
2023-12-08T17:39:20.150Z,0.70
2023-12-08T17:41:48.488Z,0.80
2023-12-08T17:44:16.652Z,0.80
2023-12-08T17:46:44.819Z,0.80
2023-12-08T17:49:14.549Z,0.80
2023-12-08T17:51:42.780Z,0.80
2023-12-08T17:54:10.927Z,0.80
2023-12-08T17:56:39.130Z,0.80
2023-12-08T17:59:07.281Z,0.80
2023-12-08T18:01:35.346Z,0.80
2023-12-08T18:04:03.455Z,0.80
2023-12-08T18:06:32.894Z,0.80
2023-12-08T18:09:04.935Z,0.80
2023-12-08T18:11:34.034Z,0.70
2023-12-08T18:14:02.586Z,0.80
2023-12-08T18:16:31.941Z,0.80
2023-12-08T18:19:00.200Z,0.80
2023-12-08T18:21:30.545Z,0.80
2023-12-08T18:24:00.777Z,0.70
2023-12-08T18:26:29.662Z,0.70
2023-12-08T18:29:08.287Z,0.70
2023-12-08T18:31:39.741Z,0.70
2023-12-08T18:34:09.180Z,0.70
2023-12-08T18:36:38.514Z,0.70
2023-12-08T18:39:08.483Z,0.70
2023-12-08T18:41:37.033Z,0.70
2023-12-08T18:44:05.278Z,0.70
2023-12-08T18:46:34.341Z,0.70
2023-12-08T18:49:03.022Z,0.70
2023-12-08T18:51:31.846Z,0.70
2023-12-08T18:54:00.755Z,0.70
2023-12-08T18:56:30.274Z,0.70
2023-12-08T18:58:58.407Z,0.70
2023-12-08T19:01:28.556Z,0.70
2023-12-08T19:03:56.962Z,0.70
2023-12-08T19:06:25.320Z,0.70
2023-12-08T19:08:53.541Z,0.70
2023-12-08T19:11:22.048Z,0.70
2023-12-08T19:13:51.577Z,0.70
2023-12-08T19:16:19.682Z,0.70
2023-12-08T19:18:48.838Z,0.70
2023-12-08T19:21:17.079Z,0.70
2023-12-08T19:23:45.221Z,0.70
2023-12-08T19:26:13.503Z,0.70
2023-12-08T19:28:41.675Z,0.70
2023-12-08T19:31:11.126Z,0.70
2023-12-08T19:33:39.367Z,0.70
2023-12-08T19:36:08.135Z,0.70
2023-12-08T19:38:36.344Z,0.70
2023-12-08T19:41:04.722Z,0.70
2023-12-08T19:43:32.899Z,0.80
2023-12-08T19:46:01.046Z,0.80
2023-12-08T19:48:30.688Z,0.70
2023-12-08T19:50:58.925Z,0.70
2023-12-08T19:53:27.061Z,0.70
2023-12-08T19:55:55.115Z,0.70
2023-12-08T19:58:23.864Z,0.80
2023-12-08T20:00:52.031Z,0.70
2023-12-08T20:03:20.190Z,0.70
2023-12-08T20:05:50.167Z,0.70
2023-12-08T20:08:19.065Z,0.80
2023-12-08T20:10:47.169Z,0.70
2023-12-08T20:13:15.280Z,0.70
2023-12-08T20:15:45.717Z,0.80
2023-12-08T20:18:14.204Z,0.70
2023-12-08T20:20:42.801Z,0.70
2023-12-08T20:23:12.561Z,0.70
2023-12-08T20:25:40.801Z,0.70
2023-12-08T20:28:09.600Z,0.70
2023-12-08T20:30:39.564Z,0.70
2023-12-08T20:33:09.926Z,0.70
2023-12-08T20:35:38.090Z,0.70
2023-12-08T20:38:06.368Z,0.70
2023-12-08T20:40:35.862Z,0.70
2023-12-08T20:43:05.061Z,0.70
2023-12-08T20:45:33.668Z,0.70
2023-12-08T20:48:01.859Z,0.70
2023-12-08T20:50:30.288Z,0.70
2023-12-08T20:52:58.422Z,0.70
2023-12-08T20:55:26.537Z,0.70
2023-12-08T20:57:55.928Z,0.70
2023-12-08T21:00:24.073Z,0.70
2023-12-08T21:02:52.182Z,0.70
2023-12-08T21:05:20.530Z,0.70
2023-12-08T21:07:49.802Z,0.70
2023-12-08T21:10:18.057Z,0.70
2023-12-08T21:12:46.145Z,0.70
2023-12-08T21:15:17.808Z,0.70
2023-12-08T21:17:46.166Z,0.70
2023-12-08T21:20:14.300Z,0.70
2023-12-08T21:22:42.402Z,0.70
2023-12-08T21:25:11.404Z,0.70
2023-12-08T21:27:40.638Z,0.70
2023-12-08T21:30:10.085Z,0.60
2023-12-08T21:32:39.905Z,0.60
2023-12-08T21:35:09.204Z,0.60
2023-12-08T21:37:38.111Z,0.60
2023-12-08T21:40:08.970Z,0.60
2023-12-08T21:42:39.849Z,0.60
2023-12-08T21:45:08.774Z,0.60
2023-12-08T21:47:36.941Z,0.60
2023-12-08T21:50:07.713Z,0.60
2023-12-08T21:52:35.844Z,0.60
2023-12-08T21:55:04.162Z,0.60
2023-12-08T21:57:32.652Z,0.60
2023-12-08T22:00:00.942Z,0.60
2023-12-08T22:02:29.193Z,0.60
2023-12-08T22:04:57.626Z,0.60
2023-12-08T22:07:27.331Z,0.60
2023-12-08T22:09:55.613Z,0.60
2023-12-08T22:12:23.833Z,0.60
2023-12-08T22:14:52.192Z,0.60
2023-12-08T22:17:20.373Z,0.60
2023-12-08T22:19:48.602Z,0.60
2023-12-08T22:22:17.070Z,0.60
2023-12-08T22:24:46.980Z,0.60
2023-12-08T22:27:15.074Z,0.60
2023-12-08T22:29:43.162Z,0.60
2023-12-08T22:32:11.253Z,0.60
2023-12-08T22:34:39.382Z,0.60
2023-12-08T22:37:07.884Z,0.60
2023-12-08T22:39:36.296Z,0.60
2023-12-08T22:42:06.567Z,0.60
2023-12-08T22:44:34.697Z,0.60
2023-12-08T22:47:02.765Z,0.50
2023-12-08T22:49:30.878Z,0.50
2023-12-08T22:51:59.812Z,0.50
2023-12-08T22:54:28.432Z,0.50
2023-12-08T22:56:56.677Z,0.50
2023-12-08T22:59:26.149Z,0.50
2023-12-08T23:01:54.269Z,0.50
2023-12-08T23:04:22.491Z,0.50
2023-12-08T23:06:51.366Z,0.50
2023-12-08T23:09:19.478Z,0.50
2023-12-08T23:11:47.610Z,0.50
2023-12-08T23:14:15.727Z,0.50
2023-12-08T23:16:45.239Z,0.50
2023-12-08T23:19:13.541Z,0.50
2023-12-08T23:21:42.380Z,0.50
2023-12-08T23:24:10.491Z,0.50
2023-12-08T23:26:40.755Z,0.50
2023-12-08T23:29:08.990Z,0.50
2023-12-08T23:31:37.657Z,0.50
2023-12-08T23:34:07.546Z,0.50
2023-12-08T23:36:35.919Z,0.50
2023-12-08T23:39:04.393Z,0.50
2023-12-08T23:41:32.748Z,0.50
2023-12-08T23:44:00.955Z,0.50
2023-12-08T23:46:29.014Z,0.50
2023-12-08T23:48:58.432Z,0.50
2023-12-08T23:51:28.834Z,0.50
2023-12-08T23:53:57.018Z,0.50
2023-12-08T23:56:25.105Z,0.50
2023-12-08T23:58:53.383Z,0.60
